sensor_id;sensor_type;location;lat;lon;timestamp;pressure;altitude;pressure_sealevel;temperature;humidity
62038;BME280;47991;42.974;12.082;2024-02-14T00:00:40;98336.56;;;2.48;81.45
62038;BME280;47991;42.974;12.082;2024-02-14T00:03:27;98337.06;;;2.47;80.87
62038;BME280;47991;42.974;12.082;2024-02-14T00:05:54;98338.65;;;2.47;81.54
62038;BME280;47991;42.974;12.082;2024-02-14T00:08:23;98341.45;;;2.48;81.77
62038;BME280;47991;42.974;12.082;2024-02-14T00:10:49;98344.81;;;2.51;80.97
62038;BME280;47991;42.974;12.082;2024-02-14T00:13:16;98346.70;;;2.49;80.96
62038;BME280;47991;42.974;12.082;2024-02-14T00:15:46;98350.70;;;2.35;81.88
62038;BME280;47991;42.974;12.082;2024-02-14T00:18:14;98352.98;;;2.23;81.48
62038;BME280;47991;42.974;12.082;2024-02-14T00:20:46;98354.29;;;2.17;81.77
62038;BME280;47991;42.974;12.082;2024-02-14T00:23:13;98353.08;;;2.17;82.09
62038;BME280;47991;42.974;12.082;2024-02-14T00:25:40;98351.46;;;2.14;83.46
62038;BME280;47991;42.974;12.082;2024-02-14T00:28:09;98352.69;;;2.14;82.65
62038;BME280;47991;42.974;12.082;2024-02-14T00:30:36;98356.16;;;2.13;83.63
62038;BME280;47991;42.974;12.082;2024-02-14T00:33:03;98358.81;;;2.15;83.98
62038;BME280;47991;42.974;12.082;2024-02-14T00:35:30;98358.16;;;2.18;83.22
62038;BME280;47991;42.974;12.082;2024-02-14T00:37:57;98363.78;;;2.21;82.61
62038;BME280;47991;42.974;12.082;2024-02-14T00:40:25;98364.64;;;2.21;82.03
62038;BME280;47991;42.974;12.082;2024-02-14T00:42:52;98369.98;;;2.16;82.09
62038;BME280;47991;42.974;12.082;2024-02-14T00:45:19;98368.13;;;2.08;82.35
62038;BME280;47991;42.974;12.082;2024-02-14T00:47:46;98366.87;;;2.06;82.27
62038;BME280;47991;42.974;12.082;2024-02-14T00:50:13;98366.33;;;2.05;83.14
62038;BME280;47991;42.974;12.082;2024-02-14T00:52:40;98369.63;;;2.04;82.97
62038;BME280;47991;42.974;12.082;2024-02-14T00:55:08;98368.59;;;2.04;83.67
62038;BME280;47991;42.974;12.082;2024-02-14T00:57:35;98372.23;;;2.03;82.93
62038;BME280;47991;42.974;12.082;2024-02-14T01:00:03;98370.18;;;2.06;84.03
62038;BME280;47991;42.974;12.082;2024-02-14T01:02:33;98365.64;;;2.18;83.91
62038;BME280;47991;42.974;12.082;2024-02-14T01:05:00;98367.31;;;2.26;83.53
62038;BME280;47991;42.974;12.082;2024-02-14T01:07:27;98374.99;;;2.26;83.48
62038;BME280;47991;42.974;12.082;2024-02-14T01:09:54;98375.34;;;2.25;82.83
62038;BME280;47991;42.974;12.082;2024-02-14T01:12:21;98374.46;;;2.25;82.63
62038;BME280;47991;42.974;12.082;2024-02-14T01:14:49;98375.20;;;2.15;82.69
62038;BME280;47991;42.974;12.082;2024-02-14T01:17:16;98380.56;;;2.01;82.94
62038;BME280;47991;42.974;12.082;2024-02-14T01:19:43;98384.61;;;1.93;83.47
62038;BME280;47991;42.974;12.082;2024-02-14T01:22:10;98384.00;;;1.87;83.69
62038;BME280;47991;42.974;12.082;2024-02-14T01:24:37;98389.75;;;1.86;82.92
62038;BME280;47991;42.974;12.082;2024-02-14T01:27:04;98391.04;;;1.79;83.47
62038;BME280;47991;42.974;12.082;2024-02-14T01:29:31;98393.79;;;1.67;84.37
62038;BME280;47991;42.974;12.082;2024-02-14T01:31:59;98398.05;;;1.62;84.59
62038;BME280;47991;42.974;12.082;2024-02-14T01:34:26;98403.27;;;1.61;84.56
62038;BME280;47991;42.974;12.082;2024-02-14T01:36:55;98401.71;;;1.61;84.78
62038;BME280;47991;42.974;12.082;2024-02-14T01:39:22;98404.53;;;1.64;84.78
62038;BME280;47991;42.974;12.082;2024-02-14T01:41:49;98403.17;;;1.66;84.29
62038;BME280;47991;42.974;12.082;2024-02-14T01:44:17;98404.91;;;1.65;84.41
62038;BME280;47991;42.974;12.082;2024-02-14T01:46:45;98403.73;;;1.67;84.86
62038;BME280;47991;42.974;12.082;2024-02-14T01:49:12;98403.70;;;1.66;85.44
62038;BME280;47991;42.974;12.082;2024-02-14T01:51:40;98401.61;;;1.66;85.78
62038;BME280;47991;42.974;12.082;2024-02-14T01:54:12;98404.21;;;1.66;86.01
62038;BME280;47991;42.974;12.082;2024-02-14T01:56:39;98407.53;;;1.65;85.70
62038;BME280;47991;42.974;12.082;2024-02-14T01:59:09;98406.13;;;1.64;85.47
62038;BME280;47991;42.974;12.082;2024-02-14T02:01:36;98408.56;;;1.65;84.81
62038;BME280;47991;42.974;12.082;2024-02-14T02:04:04;98405.96;;;1.65;84.77
62038;BME280;47991;42.974;12.082;2024-02-14T02:06:31;98407.39;;;1.67;84.60
62038;BME280;47991;42.974;12.082;2024-02-14T02:08:59;98408.19;;;1.73;84.62
62038;BME280;47991;42.974;12.082;2024-02-14T02:11:27;98406.48;;;1.75;85.32
62038;BME280;47991;42.974;12.082;2024-02-14T02:13:54;98405.53;;;1.81;85.82
62038;BME280;47991;42.974;12.082;2024-02-14T02:16:22;98408.04;;;1.85;86.00
62038;BME280;47991;42.974;12.082;2024-02-14T02:18:49;98407.59;;;1.90;85.73
62038;BME280;47991;42.974;12.082;2024-02-14T02:21:16;98407.06;;;1.90;85.86
62038;BME280;47991;42.974;12.082;2024-02-14T02:23:46;98405.90;;;1.93;86.06
62038;BME280;47991;42.974;12.082;2024-02-14T02:26:13;98399.63;;;1.94;85.72
62038;BME280;47991;42.974;12.082;2024-02-14T02:28:41;98397.67;;;1.92;85.02
62038;BME280;47991;42.974;12.082;2024-02-14T02:31:09;98397.84;;;1.80;85.52
62038;BME280;47991;42.974;12.082;2024-02-14T02:33:36;98398.02;;;1.70;85.72
62038;BME280;47991;42.974;12.082;2024-02-14T02:36:03;98397.20;;;1.63;86.07
62038;BME280;47991;42.974;12.082;2024-02-14T02:38:30;98393.08;;;1.56;86.76
62038;BME280;47991;42.974;12.082;2024-02-14T02:40:57;98393.18;;;1.52;86.89
62038;BME280;47991;42.974;12.082;2024-02-14T02:43:24;98393.30;;;1.48;86.10
62038;BME280;47991;42.974;12.082;2024-02-14T02:45:52;98394.33;;;1.47;86.25
62038;BME280;47991;42.974;12.082;2024-02-14T02:48:19;98395.54;;;1.47;86.88
62038;BME280;47991;42.974;12.082;2024-02-14T02:50:50;98397.94;;;1.45;87.80
62038;BME280;47991;42.974;12.082;2024-02-14T02:53:18;98401.69;;;1.41;87.74
62038;BME280;47991;42.974;12.082;2024-02-14T02:55:45;98405.30;;;1.38;86.82
62038;BME280;47991;42.974;12.082;2024-02-14T02:58:12;98401.79;;;1.36;87.31
62038;BME280;47991;42.974;12.082;2024-02-14T03:00:41;98410.73;;;1.40;86.95
62038;BME280;47991;42.974;12.082;2024-02-14T03:03:08;98407.16;;;1.45;86.80
62038;BME280;47991;42.974;12.082;2024-02-14T03:05:36;98405.86;;;1.50;86.52
62038;BME280;47991;42.974;12.082;2024-02-14T03:08:04;98408.30;;;1.50;87.02
62038;BME280;47991;42.974;12.082;2024-02-14T03:10:31;98407.71;;;1.46;86.99
62038;BME280;47991;42.974;12.082;2024-02-14T03:12:58;98411.40;;;1.38;86.91
62038;BME280;47991;42.974;12.082;2024-02-14T03:15:26;98414.09;;;1.33;87.31
62038;BME280;47991;42.974;12.082;2024-02-14T03:17:53;98416.16;;;1.31;87.59
62038;BME280;47991;42.974;12.082;2024-02-14T03:20:20;98418.91;;;1.30;86.80
62038;BME280;47991;42.974;12.082;2024-02-14T03:22:48;98420.38;;;1.24;86.80
62038;BME280;47991;42.974;12.082;2024-02-14T03:25:17;98424.48;;;1.20;87.62
62038;BME280;47991;42.974;12.082;2024-02-14T03:27:44;98420.30;;;1.20;88.36
62038;BME280;47991;42.974;12.082;2024-02-14T03:30:17;98421.92;;;1.24;88.48
62038;BME280;47991;42.974;12.082;2024-02-14T03:32:44;98425.13;;;1.28;88.45
62038;BME280;47991;42.974;12.082;2024-02-14T03:35:12;98425.55;;;1.31;88.04
62038;BME280;47991;42.974;12.082;2024-02-14T03:37:45;98428.48;;;1.29;88.00
62038;BME280;47991;42.974;12.082;2024-02-14T03:40:15;98431.05;;;1.27;87.96
62038;BME280;47991;42.974;12.082;2024-02-14T03:42:42;98431.43;;;1.20;87.61
62038;BME280;47991;42.974;12.082;2024-02-14T03:45:09;98432.00;;;1.05;88.44
62038;BME280;47991;42.974;12.082;2024-02-14T03:47:36;98439.45;;;1.02;88.73
62038;BME280;47991;42.974;12.082;2024-02-14T03:50:07;98438.98;;;1.06;89.02
62038;BME280;47991;42.974;12.082;2024-02-14T03:52:34;98443.56;;;1.08;90.34
62038;BME280;47991;42.974;12.082;2024-02-14T03:55:02;98446.92;;;1.11;88.44
62038;BME280;47991;42.974;12.082;2024-02-14T03:57:29;98451.52;;;1.14;88.44
62038;BME280;47991;42.974;12.082;2024-02-14T03:59:59;98452.64;;;1.18;88.23
62038;BME280;47991;42.974;12.082;2024-02-14T04:02:30;98456.30;;;1.19;88.67
62038;BME280;47991;42.974;12.082;2024-02-14T04:04:58;98457.70;;;1.19;88.44
62038;BME280;47991;42.974;12.082;2024-02-14T04:07:25;98462.98;;;1.21;88.19
62038;BME280;47991;42.974;12.082;2024-02-14T04:09:53;98464.94;;;1.23;88.12
62038;BME280;47991;42.974;12.082;2024-02-14T04:12:20;98470.02;;;1.25;88.00
62038;BME280;47991;42.974;12.082;2024-02-14T04:14:48;98473.55;;;1.27;88.12
62038;BME280;47991;42.974;12.082;2024-02-14T04:17:15;98473.61;;;1.30;88.63
62038;BME280;47991;42.974;12.082;2024-02-14T04:19:42;98475.11;;;1.27;88.37
62038;BME280;47991;42.974;12.082;2024-02-14T04:22:09;98474.50;;;1.22;87.98
62038;BME280;47991;42.974;12.082;2024-02-14T04:24:36;98479.48;;;1.19;88.03
62038;BME280;47991;42.974;12.082;2024-02-14T04:27:03;98479.54;;;1.13;87.99
62038;BME280;47991;42.974;12.082;2024-02-14T04:29:30;98477.51;;;1.07;88.07
62038;BME280;47991;42.974;12.082;2024-02-14T04:32:00;98481.03;;;1.01;88.88
62038;BME280;47991;42.974;12.082;2024-02-14T04:34:27;98484.57;;;0.95;88.24
62038;BME280;47991;42.974;12.082;2024-02-14T04:36:54;98483.06;;;0.90;88.61
62038;BME280;47991;42.974;12.082;2024-02-14T04:39:23;98480.77;;;0.88;88.49
62038;BME280;47991;42.974;12.082;2024-02-14T04:41:50;98482.25;;;0.85;88.79
62038;BME280;47991;42.974;12.082;2024-02-14T04:44:17;98482.20;;;0.82;89.31
62038;BME280;47991;42.974;12.082;2024-02-14T04:46:44;98478.52;;;0.82;88.71
62038;BME280;47991;42.974;12.082;2024-02-14T04:49:11;98481.96;;;0.79;88.81
62038;BME280;47991;42.974;12.082;2024-02-14T04:51:41;98476.69;;;0.77;89.13
62038;BME280;47991;42.974;12.082;2024-02-14T04:54:08;98475.81;;;0.77;88.67
62038;BME280;47991;42.974;12.082;2024-02-14T04:56:36;98476.00;;;0.77;88.26
62038;BME280;47991;42.974;12.082;2024-02-14T04:59:03;98476.52;;;0.77;88.43
62038;BME280;47991;42.974;12.082;2024-02-14T05:01:32;98473.39;;;0.78;88.53
62038;BME280;47991;42.974;12.082;2024-02-14T05:03:59;98474.79;;;0.77;88.36
62038;BME280;47991;42.974;12.082;2024-02-14T05:06:26;98473.96;;;0.80;88.75
62038;BME280;47991;42.974;12.082;2024-02-14T05:08:53;98465.98;;;0.81;88.53
62038;BME280;47991;42.974;12.082;2024-02-14T05:11:20;98468.95;;;0.82;88.21
62038;BME280;47991;42.974;12.082;2024-02-14T05:13:47;98472.27;;;0.81;88.48
62038;BME280;47991;42.974;12.082;2024-02-14T05:16:19;98471.79;;;0.84;88.83
62038;BME280;47991;42.974;12.082;2024-02-14T05:18:47;98473.74;;;0.85;88.52
62038;BME280;47991;42.974;12.082;2024-02-14T05:21:14;98468.42;;;0.81;88.84
62038;BME280;47991;42.974;12.082;2024-02-14T05:23:41;98471.38;;;0.73;88.57
62038;BME280;47991;42.974;12.082;2024-02-14T05:26:08;98470.70;;;0.66;88.51
62038;BME280;47991;42.974;12.082;2024-02-14T05:28:36;98473.54;;;0.60;89.10
62038;BME280;47991;42.974;12.082;2024-02-14T05:31:03;98478.83;;;0.56;88.59
62038;BME280;47991;42.974;12.082;2024-02-14T05:33:30;98478.52;;;0.49;89.69
62038;BME280;47991;42.974;12.082;2024-02-14T05:35:57;98479.73;;;0.49;90.28
62038;BME280;47991;42.974;12.082;2024-02-14T05:38:24;98477.67;;;0.50;89.97
62038;BME280;47991;42.974;12.082;2024-02-14T05:40:51;98482.26;;;0.53;89.81
62038;BME280;47991;42.974;12.082;2024-02-14T05:43:18;98481.47;;;0.57;89.51
62038;BME280;47991;42.974;12.082;2024-02-14T05:45:45;98479.45;;;0.59;89.60
62038;BME280;47991;42.974;12.082;2024-02-14T05:48:12;98482.12;;;0.63;89.66
62038;BME280;47991;42.974;12.082;2024-02-14T05:50:41;98482.30;;;0.63;89.24
62038;BME280;47991;42.974;12.082;2024-02-14T05:53:08;98484.02;;;0.55;88.88
62038;BME280;47991;42.974;12.082;2024-02-14T05:55:35;98488.63;;;0.43;89.12
62038;BME280;47991;42.974;12.082;2024-02-14T05:58:02;98492.66;;;0.37;89.63
62038;BME280;47991;42.974;12.082;2024-02-14T06:00:30;98494.04;;;0.36;89.34
62038;BME280;47991;42.974;12.082;2024-02-14T06:02:57;98495.30;;;0.39;89.20
62038;BME280;47991;42.974;12.082;2024-02-14T06:05:24;98494.63;;;0.40;89.16
62038;BME280;47991;42.974;12.082;2024-02-14T06:07:51;98499.01;;;0.33;89.03
62038;BME280;47991;42.974;12.082;2024-02-14T06:10:18;98505.19;;;0.30;89.18
62038;BME280;47991;42.974;12.082;2024-02-14T06:12:45;98510.85;;;0.27;89.25
62038;BME280;47991;42.974;12.082;2024-02-14T06:15:14;98510.85;;;0.27;88.85
62038;BME280;47991;42.974;12.082;2024-02-14T06:17:41;98508.91;;;0.26;89.11
62038;BME280;47991;42.974;12.082;2024-02-14T06:20:09;98508.33;;;0.23;89.70
62038;BME280;47991;42.974;12.082;2024-02-14T06:22:37;98508.70;;;0.25;89.59
62038;BME280;47991;42.974;12.082;2024-02-14T06:25:04;98503.76;;;0.29;90.72
62038;BME280;47991;42.974;12.082;2024-02-14T06:27:32;98508.77;;;0.34;90.64
62038;BME280;47991;42.974;12.082;2024-02-14T06:29:59;98513.22;;;0.38;90.22
62038;BME280;47991;42.974;12.082;2024-02-14T06:32:28;98518.20;;;0.43;90.20
62038;BME280;47991;42.974;12.082;2024-02-14T06:34:55;98515.57;;;0.49;90.19
62038;BME280;47991;42.974;12.082;2024-02-14T06:37:22;98516.77;;;0.56;89.96
62038;BME280;47991;42.974;12.082;2024-02-14T06:39:49;98517.82;;;0.64;89.45
62038;BME280;47991;42.974;12.082;2024-02-14T06:42:17;98516.10;;;0.89;90.14
62038;BME280;47991;42.974;12.082;2024-02-14T06:44:44;98521.99;;;1.28;89.85
62038;BME280;47991;42.974;12.082;2024-02-14T06:47:11;98522.33;;;1.90;89.19
62038;BME280;47991;42.974;12.082;2024-02-14T06:49:38;98524.48;;;2.45;87.55
62038;BME280;47991;42.974;12.082;2024-02-14T06:52:05;98524.25;;;2.53;86.96
62038;BME280;47991;42.974;12.082;2024-02-14T06:54:32;98518.02;;;2.68;87.58
62038;BME280;47991;42.974;12.082;2024-02-14T06:57:00;98524.53;;;2.83;87.72
62038;BME280;47991;42.974;12.082;2024-02-14T06:59:27;98527.39;;;3.14;87.89
62038;BME280;47991;42.974;12.082;2024-02-14T07:01:55;98531.37;;;3.36;87.21
62038;BME280;47991;42.974;12.082;2024-02-14T07:04:22;98531.55;;;3.38;86.59
62038;BME280;47991;42.974;12.082;2024-02-14T07:06:55;98530.10;;;3.20;86.30
62038;BME280;47991;42.974;12.082;2024-02-14T07:16:31;98546.04;;;3.64;86.97
62038;BME280;47991;42.974;12.082;2024-02-14T07:18:57;98549.77;;;3.53;87.52
62038;BME280;47991;42.974;12.082;2024-02-14T07:21:24;98546.84;;;3.58;88.18
62038;BME280;47991;42.974;12.082;2024-02-14T07:23:51;98548.66;;;3.80;88.24
62038;BME280;47991;42.974;12.082;2024-02-14T07:26:20;98544.77;;;4.26;87.22
62038;BME280;47991;42.974;12.082;2024-02-14T07:28:47;98549.72;;;4.31;86.84
62038;BME280;47991;42.974;12.082;2024-02-14T07:31:14;98553.36;;;4.28;86.17
62038;BME280;47991;42.974;12.082;2024-02-14T07:33:43;98550.91;;;4.28;86.50
62038;BME280;47991;42.974;12.082;2024-02-14T07:36:11;98550.23;;;4.29;86.19
62038;BME280;47991;42.974;12.082;2024-02-14T07:38:38;98557.98;;;4.36;86.27
62038;BME280;47991;42.974;12.082;2024-02-14T07:41:04;98560.84;;;4.42;86.43
62038;BME280;47991;42.974;12.082;2024-02-14T07:43:32;98558.60;;;4.46;86.14
62038;BME280;47991;42.974;12.082;2024-02-14T07:45:58;98556.21;;;4.53;86.53
62038;BME280;47991;42.974;12.082;2024-02-14T07:48:27;98556.33;;;4.67;86.46
62038;BME280;47991;42.974;12.082;2024-02-14T07:50:54;98558.10;;;4.72;86.84
62038;BME280;47991;42.974;12.082;2024-02-14T07:53:22;98552.13;;;4.67;85.35
62038;BME280;47991;42.974;12.082;2024-02-14T07:55:50;98553.85;;;4.66;86.11
62038;BME280;47991;42.974;12.082;2024-02-14T07:58:16;98554.20;;;4.65;86.20
62038;BME280;47991;42.974;12.082;2024-02-14T08:00:43;98553.35;;;4.68;85.52
62038;BME280;47991;42.974;12.082;2024-02-14T08:03:10;98558.31;;;4.76;86.12
62038;BME280;47991;42.974;12.082;2024-02-14T08:05:38;98555.46;;;4.93;85.76
62038;BME280;47991;42.974;12.082;2024-02-14T08:08:06;98557.47;;;5.07;84.59
62038;BME280;47991;42.974;12.082;2024-02-14T08:10:33;98557.75;;;5.25;85.29
62038;BME280;47991;42.974;12.082;2024-02-14T08:12:59;98556.13;;;5.49;84.92
62038;BME280;47991;42.974;12.082;2024-02-14T08:15:27;98557.63;;;5.69;85.21
62038;BME280;47991;42.974;12.082;2024-02-14T08:17:54;98558.17;;;5.81;84.44
62038;BME280;47991;42.974;12.082;2024-02-14T08:20:23;98560.20;;;6.02;83.43
62038;BME280;47991;42.974;12.082;2024-02-14T08:22:50;98561.83;;;6.19;84.25
62038;BME280;47991;42.974;12.082;2024-02-14T08:25:17;98559.55;;;6.24;82.73
62038;BME280;47991;42.974;12.082;2024-02-14T08:27:44;98564.94;;;6.03;81.83
62038;BME280;47991;42.974;12.082;2024-02-14T08:30:12;98563.30;;;5.91;82.59
62038;BME280;47991;42.974;12.082;2024-02-14T08:32:39;98563.13;;;5.91;83.69
62038;BME280;47991;42.974;12.082;2024-02-14T08:35:07;98561.42;;;5.96;84.03
62038;BME280;47991;42.974;12.082;2024-02-14T08:37:36;98561.09;;;6.01;83.63
62038;BME280;47991;42.974;12.082;2024-02-14T08:40:05;98566.88;;;6.01;83.76
62038;BME280;47991;42.974;12.082;2024-02-14T08:42:33;98567.79;;;6.15;84.20
62038;BME280;47991;42.974;12.082;2024-02-14T08:45:01;98563.08;;;6.31;82.96
62038;BME280;47991;42.974;12.082;2024-02-14T08:47:28;98561.68;;;6.47;82.93
62038;BME280;47991;42.974;12.082;2024-02-14T08:49:55;98560.11;;;6.48;81.74
62038;BME280;47991;42.974;12.082;2024-02-14T08:52:22;98554.65;;;6.41;81.60
62038;BME280;47991;42.974;12.082;2024-02-14T08:54:49;98556.95;;;6.75;82.08
62038;BME280;47991;42.974;12.082;2024-02-14T08:57:16;98557.27;;;8.01;76.99
62038;BME280;47991;42.974;12.082;2024-02-14T08:59:45;98552.52;;;8.83;73.71
62038;BME280;47991;42.974;12.082;2024-02-14T09:02:16;98549.56;;;9.64;69.22
62038;BME280;47991;42.974;12.082;2024-02-14T09:04:43;98548.41;;;9.71;68.80
62038;BME280;47991;42.974;12.082;2024-02-14T09:07:11;98549.15;;;9.21;68.49
62038;BME280;47991;42.974;12.082;2024-02-14T09:09:39;98548.48;;;8.81;71.30
62038;BME280;47991;42.974;12.082;2024-02-14T09:12:07;98553.08;;;10.02;68.83
62038;BME280;47991;42.974;12.082;2024-02-14T09:14:34;98554.90;;;11.35;63.06
62038;BME280;47991;42.974;12.082;2024-02-14T09:17:03;98557.31;;;11.85;60.54
62038;BME280;47991;42.974;12.082;2024-02-14T09:19:30;98562.95;;;11.59;62.86
62038;BME280;47991;42.974;12.082;2024-02-14T09:21:57;98564.91;;;10.80;63.15
62038;BME280;47991;42.974;12.082;2024-02-14T09:24:24;98562.05;;;12.17;61.81
62038;BME280;47991;42.974;12.082;2024-02-14T09:26:51;98564.34;;;13.04;57.45
62038;BME280;47991;42.974;12.082;2024-02-14T09:29:18;98565.06;;;12.52;60.12
62038;BME280;47991;42.974;12.082;2024-02-14T09:31:45;98565.00;;;12.99;59.01
62038;BME280;47991;42.974;12.082;2024-02-14T09:34:15;98566.09;;;13.34;54.47
62038;BME280;47991;42.974;12.082;2024-02-14T09:36:47;98563.92;;;13.13;57.21
62038;BME280;47991;42.974;12.082;2024-02-14T09:39:16;98568.27;;;12.44;58.53
62038;BME280;47991;42.974;12.082;2024-02-14T09:41:51;98570.13;;;11.73;60.10
62038;BME280;47991;42.974;12.082;2024-02-14T09:44:21;98575.38;;;11.39;62.08
62038;BME280;47991;42.974;12.082;2024-02-14T09:46:49;98573.44;;;11.39;61.18
62038;BME280;47991;42.974;12.082;2024-02-14T09:49:17;98575.18;;;12.21;59.50
62038;BME280;47991;42.974;12.082;2024-02-14T09:51:46;98571.11;;;12.81;55.97
62038;BME280;47991;42.974;12.082;2024-02-14T09:54:15;98568.48;;;12.73;55.20
62038;BME280;47991;42.974;12.082;2024-02-14T09:56:48;98565.25;;;13.03;54.06
62038;BME280;47991;42.974;12.082;2024-02-14T09:59:17;98560.02;;;13.41;51.93
62038;BME280;47991;42.974;12.082;2024-02-14T10:01:45;98557.35;;;13.92;50.69
62038;BME280;47991;42.974;12.082;2024-02-14T10:04:13;98554.82;;;14.75;48.90
62038;BME280;47991;42.974;12.082;2024-02-14T10:06:40;98559.17;;;15.67;46.61
62038;BME280;47991;42.974;12.082;2024-02-14T10:09:07;98561.85;;;15.57;48.17
62038;BME280;47991;42.974;12.082;2024-02-14T10:11:37;98556.95;;;15.24;48.84
62038;BME280;47991;42.974;12.082;2024-02-14T10:14:05;98558.36;;;14.87;47.87
62038;BME280;47991;42.974;12.082;2024-02-14T10:16:35;98562.61;;;14.88;48.31
62038;BME280;47991;42.974;12.082;2024-02-14T10:19:04;98564.27;;;14.46;48.38
62038;BME280;47991;42.974;12.082;2024-02-14T10:21:31;98569.34;;;13.64;49.95
62038;BME280;47991;42.974;12.082;2024-02-14T10:24:00;98565.94;;;13.04;49.74
62038;BME280;47991;42.974;12.082;2024-02-14T10:26:30;98559.98;;;12.87;48.79
62038;BME280;47991;42.974;12.082;2024-02-14T10:28:59;98562.14;;;12.86;47.34
62038;BME280;47991;42.974;12.082;2024-02-14T10:31:26;98562.36;;;12.62;48.18
62038;BME280;47991;42.974;12.082;2024-02-14T10:33:56;98561.35;;;12.67;50.52
62038;BME280;47991;42.974;12.082;2024-02-14T10:36:23;98554.80;;;12.81;52.57
62038;BME280;47991;42.974;12.082;2024-02-14T10:38:51;98548.11;;;12.93;52.74
62038;BME280;47991;42.974;12.082;2024-02-14T10:41:18;98544.27;;;12.83;51.96
62038;BME280;47991;42.974;12.082;2024-02-14T10:43:45;98538.82;;;12.81;52.29
62038;BME280;47991;42.974;12.082;2024-02-14T10:46:22;98541.58;;;12.78;51.64
62038;BME280;47991;42.974;12.082;2024-02-14T10:48:55;98540.11;;;12.94;53.69
62038;BME280;47991;42.974;12.082;2024-02-14T10:51:30;98541.21;;;12.92;53.85
62038;BME280;47991;42.974;12.082;2024-02-14T10:53:58;98545.30;;;13.13;53.51
62038;BME280;47991;42.974;12.082;2024-02-14T10:56:28;98542.05;;;13.29;53.41
62038;BME280;47991;42.974;12.082;2024-02-14T10:58:56;98538.53;;;13.27;53.23
62038;BME280;47991;42.974;12.082;2024-02-14T11:01:30;98534.45;;;13.14;51.91
62038;BME280;47991;42.974;12.082;2024-02-14T11:04:00;98529.00;;;13.18;52.05
62038;BME280;47991;42.974;12.082;2024-02-14T11:06:27;98527.53;;;13.27;51.11
62038;BME280;47991;42.974;12.082;2024-02-14T11:09:02;98530.73;;;13.13;49.72
62038;BME280;47991;42.974;12.082;2024-02-14T11:11:34;98530.88;;;13.22;51.19
62038;BME280;47991;42.974;12.082;2024-02-14T11:14:02;98522.85;;;13.29;48.10
62038;BME280;47991;42.974;12.082;2024-02-14T11:16:31;98523.44;;;13.41;49.74
62038;BME280;47991;42.974;12.082;2024-02-14T11:19:11;98524.35;;;13.47;49.08
62038;BME280;47991;42.974;12.082;2024-02-14T11:21:42;98524.67;;;13.49;48.08
62038;BME280;47991;42.974;12.082;2024-02-14T11:24:10;98522.46;;;13.51;44.73
62038;BME280;47991;42.974;12.082;2024-02-14T11:26:48;98523.14;;;13.46;45.59
62038;BME280;47991;42.974;12.082;2024-02-14T11:29:18;98523.19;;;13.50;45.99
62038;BME280;47991;42.974;12.082;2024-02-14T11:31:45;98519.44;;;13.51;46.21
62038;BME280;47991;42.974;12.082;2024-02-14T11:34:15;98510.72;;;13.83;45.96
62038;BME280;47991;42.974;12.082;2024-02-14T11:36:43;98505.11;;;14.15;46.04
62038;BME280;47991;42.974;12.082;2024-02-14T11:39:11;98505.29;;;14.21;44.54
62038;BME280;47991;42.974;12.082;2024-02-14T11:41:38;98513.35;;;14.13;45.29
62038;BME280;47991;42.974;12.082;2024-02-14T11:44:06;98515.44;;;13.97;47.31
62038;BME280;47991;42.974;12.082;2024-02-14T11:46:34;98512.56;;;14.04;48.68
62038;BME280;47991;42.974;12.082;2024-02-14T11:49:03;98503.41;;;13.95;49.67
62038;BME280;47991;42.974;12.082;2024-02-14T11:51:32;98501.81;;;14.12;49.88
62038;BME280;47991;42.974;12.082;2024-02-14T11:54:00;98498.36;;;14.15;48.86
62038;BME280;47991;42.974;12.082;2024-02-14T11:56:32;98495.39;;;14.13;48.86
62038;BME280;47991;42.974;12.082;2024-02-14T11:59:04;98494.16;;;14.29;47.09
62038;BME280;47991;42.974;12.082;2024-02-14T12:01:36;98490.39;;;15.06;45.71
62038;BME280;47991;42.974;12.082;2024-02-14T12:04:10;98483.23;;;15.33;45.00
62038;BME280;47991;42.974;12.082;2024-02-14T12:06:39;98480.98;;;15.31;45.62
62038;BME280;47991;42.974;12.082;2024-02-14T12:09:11;98478.41;;;15.43;46.18
62038;BME280;47991;42.974;12.082;2024-02-14T12:11:40;98474.27;;;15.44;45.94
62038;BME280;47991;42.974;12.082;2024-02-14T12:14:10;98469.02;;;15.12;44.78
62038;BME280;47991;42.974;12.082;2024-02-14T12:16:38;98466.91;;;14.96;45.43
62038;BME280;47991;42.974;12.082;2024-02-14T12:19:08;98467.65;;;14.74;42.32
62038;BME280;47991;42.974;12.082;2024-02-14T12:21:39;98461.92;;;14.75;43.95
62038;BME280;47991;42.974;12.082;2024-02-14T12:24:08;98463.11;;;14.77;42.44
62038;BME280;47991;42.974;12.082;2024-02-14T12:26:36;98461.67;;;14.67;41.04
62038;BME280;47991;42.974;12.082;2024-02-14T12:29:04;98464.01;;;14.66;41.67
62038;BME280;47991;42.974;12.082;2024-02-14T12:31:33;98462.77;;;14.60;40.68
62038;BME280;47991;42.974;12.082;2024-02-14T12:34:02;98462.54;;;14.50;40.70
62038;BME280;47991;42.974;12.082;2024-02-14T12:36:32;98461.64;;;14.62;41.95
62038;BME280;47991;42.974;12.082;2024-02-14T12:39:00;98461.55;;;15.21;41.69
62038;BME280;47991;42.974;12.082;2024-02-14T12:41:29;98457.41;;;15.90;39.20
62038;BME280;47991;42.974;12.082;2024-02-14T12:43:58;98451.61;;;16.33;38.63
62038;BME280;47991;42.974;12.082;2024-02-14T12:46:25;98444.73;;;16.27;39.14
62038;BME280;47991;42.974;12.082;2024-02-14T12:48:53;98444.59;;;16.04;39.73
62038;BME280;47991;42.974;12.082;2024-02-14T12:51:21;98441.23;;;16.03;39.02
62038;BME280;47991;42.974;12.082;2024-02-14T12:53:48;98438.76;;;15.88;40.65
62038;BME280;47991;42.974;12.082;2024-02-14T12:56:15;98439.48;;;15.59;39.29
62038;BME280;47991;42.974;12.082;2024-02-14T12:58:43;98440.40;;;15.49;41.13
62038;BME280;47991;42.974;12.082;2024-02-14T13:01:11;98442.61;;;15.28;41.92
62038;BME280;47991;42.974;12.082;2024-02-14T13:03:38;98432.60;;;15.24;40.64
62038;BME280;47991;42.974;12.082;2024-02-14T13:06:05;98432.40;;;15.10;40.08
62038;BME280;47991;42.974;12.082;2024-02-14T13:08:32;98433.51;;;15.19;41.23